sensor_id;sensor_type;location;lat;lon;timestamp;temperature;humidity
22781;DHT22;11557;50.884;4.322;2024-02-28T00:01:25;7.80;99.90
22781;DHT22;11557;50.884;4.322;2024-02-28T00:03:51;7.80;99.90
22781;DHT22;11557;50.884;4.322;2024-02-28T00:06:17;7.70;99.90
22781;DHT22;11557;50.884;4.322;2024-02-28T00:08:42;7.40;99.90
22781;DHT22;11557;50.884;4.322;2024-02-28T00:11:08;7.30;99.90
22781;DHT22;11557;50.884;4.322;2024-02-28T00:13:34;7.40;99.90
22781;DHT22;11557;50.884;4.322;2024-02-28T00:15:59;7.50;99.90
22781;DHT22;11557;50.884;4.322;2024-02-28T00:18:25;7.40;99.90
22781;DHT22;11557;50.884;4.322;2024-02-28T00:20:51;7.30;99.90
22781;DHT22;11557;50.884;4.322;2024-02-28T00:23:16;8.00;99.90
22781;DHT22;11557;50.884;4.322;2024-02-28T00:25:42;7.20;99.90
22781;DHT22;11557;50.884;4.322;2024-02-28T00:28:08;6.80;99.90
22781;DHT22;11557;50.884;4.322;2024-02-28T00:30:34;6.40;99.90
22781;DHT22;11557;50.884;4.322;2024-02-28T00:33:00;6.40;99.90
22781;DHT22;11557;50.884;4.322;2024-02-28T00:35:26;6.50;99.90
22781;DHT22;11557;50.884;4.322;2024-02-28T00:37:51;6.20;99.90
22781;DHT22;11557;50.884;4.322;2024-02-28T00:40:17;6.60;99.90
22781;DHT22;11557;50.884;4.322;2024-02-28T00:42:43;6.80;99.90
22781;DHT22;11557;50.884;4.322;2024-02-28T00:45:09;7.00;99.90
22781;DHT22;11557;50.884;4.322;2024-02-28T00:47:35;7.20;99.90
22781;DHT22;11557;50.884;4.322;2024-02-28T00:50:01;7.20;99.90
22781;DHT22;11557;50.884;4.322;2024-02-28T00:52:30;7.20;99.90
22781;DHT22;11557;50.884;4.322;2024-02-28T00:54:57;7.30;99.90
22781;DHT22;11557;50.884;4.322;2024-02-28T00:57:23;7.10;99.90
22781;DHT22;11557;50.884;4.322;2024-02-28T00:59:49;7.00;99.90
22781;DHT22;11557;50.884;4.322;2024-02-28T01:02:15;7.10;99.90
22781;DHT22;11557;50.884;4.322;2024-02-28T01:04:41;7.20;99.90
22781;DHT22;11557;50.884;4.322;2024-02-28T01:07:07;7.20;99.90
22781;DHT22;11557;50.884;4.322;2024-02-28T01:09:32;7.10;99.90
22781;DHT22;11557;50.884;4.322;2024-02-28T01:11:58;7.10;99.90
22781;DHT22;11557;50.884;4.322;2024-02-28T01:14:24;7.10;99.90
22781;DHT22;11557;50.884;4.322;2024-02-28T01:16:50;7.10;99.90
22781;DHT22;11557;50.884;4.322;2024-02-28T01:19:16;7.00;99.90
22781;DHT22;11557;50.884;4.322;2024-02-28T01:21:42;7.00;99.90
22781;DHT22;11557;50.884;4.322;2024-02-28T01:24:07;7.10;99.90
22781;DHT22;11557;50.884;4.322;2024-02-28T01:26:33;7.00;99.90
22781;DHT22;11557;50.884;4.322;2024-02-28T01:28:58;6.90;99.90
22781;DHT22;11557;50.884;4.322;2024-02-28T01:31:24;6.90;99.90
22781;DHT22;11557;50.884;4.322;2024-02-28T01:33:50;6.90;99.90
22781;DHT22;11557;50.884;4.322;2024-02-28T01:36:15;6.60;99.90
22781;DHT22;11557;50.884;4.322;2024-02-28T01:38:41;6.20;99.90
22781;DHT22;11557;50.884;4.322;2024-02-28T01:41:07;5.80;99.90
22781;DHT22;11557;50.884;4.322;2024-02-28T01:43:33;5.70;99.90
22781;DHT22;11557;50.884;4.322;2024-02-28T01:46:01;5.90;99.90
22781;DHT22;11557;50.884;4.322;2024-02-28T01:48:29;6.10;99.90
22781;DHT22;11557;50.884;4.322;2024-02-28T01:50:55;6.10;99.90
22781;DHT22;11557;50.884;4.322;2024-02-28T01:53:21;7.30;99.90
22781;DHT22;11557;50.884;4.322;2024-02-28T01:55:47;6.30;99.90
22781;DHT22;11557;50.884;4.322;2024-02-28T01:58:13;6.30;99.90
22781;DHT22;11557;50.884;4.322;2024-02-28T02:00:39;6.30;99.90
22781;DHT22;11557;50.884;4.322;2024-02-28T02:03:05;6.30;99.90
22781;DHT22;11557;50.884;4.322;2024-02-28T02:05:31;6.20;99.90
22781;DHT22;11557;50.884;4.322;2024-02-28T02:08:01;6.30;99.90
22781;DHT22;11557;50.884;4.322;2024-02-28T02:10:26;6.50;99.90
22781;DHT22;11557;50.884;4.322;2024-02-28T02:12:52;6.70;99.90
22781;DHT22;11557;50.884;4.322;2024-02-28T02:15:18;6.70;99.90
22781;DHT22;11557;50.884;4.322;2024-02-28T02:17:44;6.70;99.90
22781;DHT22;11557;50.884;4.322;2024-02-28T02:20:10;6.80;99.90
22781;DHT22;11557;50.884;4.322;2024-02-28T02:22:38;6.80;99.90
22781;DHT22;11557;50.884;4.322;2024-02-28T02:25:04;6.80;99.90
22781;DHT22;11557;50.884;4.322;2024-02-28T02:27:30;6.70;99.90
22781;DHT22;11557;50.884;4.322;2024-02-28T02:29:56;6.70;99.90
22781;DHT22;11557;50.884;4.322;2024-02-28T02:32:22;6.80;99.90
22781;DHT22;11557;50.884;4.322;2024-02-28T02:34:47;6.80;99.90
22781;DHT22;11557;50.884;4.322;2024-02-28T02:37:13;6.80;99.90
22781;DHT22;11557;50.884;4.322;2024-02-28T02:39:39;6.80;99.90
22781;DHT22;11557;50.884;4.322;2024-02-28T02:42:04;6.80;99.90
22781;DHT22;11557;50.884;4.322;2024-02-28T02:44:30;6.80;99.90
22781;DHT22;11557;50.884;4.322;2024-02-28T02:46:55;6.70;99.90
22781;DHT22;11557;50.884;4.322;2024-02-28T02:49:21;6.70;99.90
22781;DHT22;11557;50.884;4.322;2024-02-28T02:51:47;6.90;99.90
22781;DHT22;11557;50.884;4.322;2024-02-28T02:54:13;6.40;99.90
22781;DHT22;11557;50.884;4.322;2024-02-28T02:56:41;6.30;99.90
22781;DHT22;11557;50.884;4.322;2024-02-28T02:59:09;6.10;99.90
22781;DHT22;11557;50.884;4.322;2024-02-28T03:01:37;6.00;99.90
22781;DHT22;11557;50.884;4.322;2024-02-28T03:04:03;5.90;99.90
22781;DHT22;11557;50.884;4.322;2024-02-28T03:06:29;5.80;99.90
22781;DHT22;11557;50.884;4.322;2024-02-28T03:08:54;5.80;99.90
22781;DHT22;11557;50.884;4.322;2024-02-28T03:11:20;5.90;99.90
22781;DHT22;11557;50.884;4.322;2024-02-28T03:13:46;5.90;99.90
22781;DHT22;11557;50.884;4.322;2024-02-28T03:16:11;6.00;99.90
22781;DHT22;11557;50.884;4.322;2024-02-28T03:18:37;6.00;99.90
22781;DHT22;11557;50.884;4.322;2024-02-28T03:21:03;7.30;99.90
22781;DHT22;11557;50.884;4.322;2024-02-28T03:23:29;6.40;99.90
22781;DHT22;11557;50.884;4.322;2024-02-28T03:25:55;6.40;99.90
22781;DHT22;11557;50.884;4.322;2024-02-28T03:28:21;6.70;99.90
22781;DHT22;11557;50.884;4.322;2024-02-28T03:30:46;6.20;99.90
22781;DHT22;11557;50.884;4.322;2024-02-28T03:33:12;6.00;99.90
22781;DHT22;11557;50.884;4.322;2024-02-28T03:35:37;6.20;99.90
22781;DHT22;11557;50.884;4.322;2024-02-28T03:38:03;6.20;99.90
22781;DHT22;11557;50.884;4.322;2024-02-28T03:40:29;6.20;99.90
22781;DHT22;11557;50.884;4.322;2024-02-28T03:42:54;6.30;99.90
22781;DHT22;11557;50.884;4.322;2024-02-28T03:45:20;6.20;99.90
22781;DHT22;11557;50.884;4.322;2024-02-28T03:47:46;6.20;99.90
22781;DHT22;11557;50.884;4.322;2024-02-28T03:50:11;6.30;99.90
22781;DHT22;11557;50.884;4.322;2024-02-28T03:52:37;6.20;99.90
22781;DHT22;11557;50.884;4.322;2024-02-28T03:55:03;6.20;99.90
22781;DHT22;11557;50.884;4.322;2024-02-28T03:57:29;6.20;99.90
22781;DHT22;11557;50.884;4.322;2024-02-28T03:59:54;6.20;99.90
22781;DHT22;11557;50.884;4.322;2024-02-28T04:02:20;6.20;99.90
22781;DHT22;11557;50.884;4.322;2024-02-28T04:04:45;6.20;99.90
22781;DHT22;11557;50.884;4.322;2024-02-28T04:07:11;6.20;99.90
22781;DHT22;11557;50.884;4.322;2024-02-28T04:09:37;6.20;99.90
22781;DHT22;11557;50.884;4.322;2024-02-28T04:12:03;6.10;99.90
22781;DHT22;11557;50.884;4.322;2024-02-28T04:14:28;6.10;99.90
22781;DHT22;11557;50.884;4.322;2024-02-28T04:16:54;6.00;99.90
22781;DHT22;11557;50.884;4.322;2024-02-28T04:19:20;6.00;99.90
22781;DHT22;11557;50.884;4.322;2024-02-28T04:21:46;6.00;99.90
22781;DHT22;11557;50.884;4.322;2024-02-28T04:24:11;6.00;99.90
22781;DHT22;11557;50.884;4.322;2024-02-28T04:26:37;6.10;99.90
22781;DHT22;11557;50.884;4.322;2024-02-28T04:29:03;6.00;99.90
22781;DHT22;11557;50.884;4.322;2024-02-28T04:31:30;6.20;99.90
22781;DHT22;11557;50.884;4.322;2024-02-28T04:33:56;5.90;99.90
22781;DHT22;11557;50.884;4.322;2024-02-28T04:36:22;5.60;99.90
22781;DHT22;11557;50.884;4.322;2024-02-28T04:38:47;5.50;99.90
22781;DHT22;11557;50.884;4.322;2024-02-28T04:41:13;5.60;99.90
22781;DHT22;11557;50.884;4.322;2024-02-28T04:43:40;6.10;99.90
22781;DHT22;11557;50.884;4.322;2024-02-28T04:46:05;5.80;99.90
22781;DHT22;11557;50.884;4.322;2024-02-28T04:48:31;5.70;99.90
22781;DHT22;11557;50.884;4.322;2024-02-28T04:50:57;5.80;99.90
22781;DHT22;11557;50.884;4.322;2024-02-28T04:53:23;5.70;99.90
22781;DHT22;11557;50.884;4.322;2024-02-28T04:55:48;5.80;99.90
22781;DHT22;11557;50.884;4.322;2024-02-28T04:58:14;5.60;99.90
22781;DHT22;11557;50.884;4.322;2024-02-28T05:00:39;5.60;99.90
22781;DHT22;11557;50.884;4.322;2024-02-28T05:03:05;5.60;99.90
22781;DHT22;11557;50.884;4.322;2024-02-28T05:05:31;5.50;99.90
22781;DHT22;11557;50.884;4.322;2024-02-28T05:07:57;5.40;99.90
22781;DHT22;11557;50.884;4.322;2024-02-28T05:10:23;5.30;99.90
22781;DHT22;11557;50.884;4.322;2024-02-28T05:12:49;5.30;99.90
22781;DHT22;11557;50.884;4.322;2024-02-28T05:15:15;5.50;99.90
22781;DHT22;11557;50.884;4.322;2024-02-28T05:17:40;5.60;99.90
22781;DHT22;11557;50.884;4.322;2024-02-28T05:20:06;5.60;99.90
22781;DHT22;11557;50.884;4.322;2024-02-28T05:22:32;5.60;99.90
22781;DHT22;11557;50.884;4.322;2024-02-28T05:24:58;5.40;99.90
22781;DHT22;11557;50.884;4.322;2024-02-28T05:27:23;5.50;99.90
22781;DHT22;11557;50.884;4.322;2024-02-28T05:29:49;5.40;99.90
22781;DHT22;11557;50.884;4.322;2024-02-28T05:32:18;5.30;99.90
22781;DHT22;11557;50.884;4.322;2024-02-28T05:34:43;5.20;99.90
22781;DHT22;11557;50.884;4.322;2024-02-28T05:37:09;5.10;99.90
22781;DHT22;11557;50.884;4.322;2024-02-28T05:39:35;5.10;99.90
22781;DHT22;11557;50.884;4.322;2024-02-28T05:42:00;5.10;99.90
22781;DHT22;11557;50.884;4.322;2024-02-28T05:44:26;5.00;99.90
22781;DHT22;11557;50.884;4.322;2024-02-28T05:46:51;5.10;99.90
22781;DHT22;11557;50.884;4.322;2024-02-28T05:49:17;5.30;99.90
22781;DHT22;11557;50.884;4.322;2024-02-28T05:51:43;5.30;99.90
22781;DHT22;11557;50.884;4.322;2024-02-28T05:54:10;5.40;99.90
22781;DHT22;11557;50.884;4.322;2024-02-28T05:56:36;5.50;99.90
22781;DHT22;11557;50.884;4.322;2024-02-28T05:59:01;5.50;99.90
22781;DHT22;11557;50.884;4.322;2024-02-28T06:01:28;5.60;99.90
22781;DHT22;11557;50.884;4.322;2024-02-28T06:03:54;5.50;99.90
22781;DHT22;11557;50.884;4.322;2024-02-28T06:06:19;5.60;99.90
22781;DHT22;11557;50.884;4.322;2024-02-28T06:08:45;5.50;99.90
22781;DHT22;11557;50.884;4.322;2024-02-28T06:11:10;5.60;99.90
22781;DHT22;11557;50.884;4.322;2024-02-28T06:13:36;5.70;99.90
22781;DHT22;11557;50.884;4.322;2024-02-28T06:16:02;5.80;99.90
22781;DHT22;11557;50.884;4.322;2024-02-28T06:18:29;5.80;99.90
22781;DHT22;11557;50.884;4.322;2024-02-28T06:20:58;6.00;99.90
22781;DHT22;11557;50.884;4.322;2024-02-28T06:23:24;5.80;99.90
22781;DHT22;11557;50.884;4.322;2024-02-28T06:25:50;6.00;99.90
22781;DHT22;11557;50.884;4.322;2024-02-28T06:28:16;6.00;99.90
22781;DHT22;11557;50.884;4.322;2024-02-28T06:30:43;6.00;99.90
22781;DHT22;11557;50.884;4.322;2024-02-28T06:33:12;5.90;99.90
22781;DHT22;11557;50.884;4.322;2024-02-28T06:35:37;6.00;99.90
22781;DHT22;11557;50.884;4.322;2024-02-28T06:38:03;6.10;99.90
22781;DHT22;11557;50.884;4.322;2024-02-28T06:40:29;6.20;99.90
22781;DHT22;11557;50.884;4.322;2024-02-28T06:42:55;6.30;99.90
22781;DHT22;11557;50.884;4.322;2024-02-28T06:45:21;6.40;99.90
22781;DHT22;11557;50.884;4.322;2024-02-28T06:47:47;6.30;99.90
22781;DHT22;11557;50.884;4.322;2024-02-28T06:50:12;6.20;99.90
22781;DHT22;11557;50.884;4.322;2024-02-28T06:52:38;6.30;99.90
22781;DHT22;11557;50.884;4.322;2024-02-28T06:55:04;6.40;99.90
22781;DHT22;11557;50.884;4.322;2024-02-28T06:57:39;6.40;99.90
22781;DHT22;11557;50.884;4.322;2024-02-28T07:00:07;6.50;99.90
22781;DHT22;11557;50.884;4.322;2024-02-28T07:02:36;6.50;99.90
22781;DHT22;11557;50.884;4.322;2024-02-28T07:05:02;6.50;99.90
22781;DHT22;11557;50.884;4.322;2024-02-28T07:07:32;6.40;99.90
22781;DHT22;11557;50.884;4.322;2024-02-28T07:09:58;6.50;99.90
22781;DHT22;11557;50.884;4.322;2024-02-28T07:12:23;6.60;99.90
22781;DHT22;11557;50.884;4.322;2024-02-28T07:14:50;6.70;99.90
22781;DHT22;11557;50.884;4.322;2024-02-28T07:17:16;6.70;99.90
22781;DHT22;11557;50.884;4.322;2024-02-28T07:19:41;6.80;99.90
22781;DHT22;11557;50.884;4.322;2024-02-28T07:22:07;6.80;99.90
22781;DHT22;11557;50.884;4.322;2024-02-28T07:24:32;6.70;99.90
22781;DHT22;11557;50.884;4.322;2024-02-28T07:26:58;6.70;99.90
22781;DHT22;11557;50.884;4.322;2024-02-28T07:29:24;6.90;99.90
22781;DHT22;11557;50.884;4.322;2024-02-28T07:31:50;7.00;99.90
22781;DHT22;11557;50.884;4.322;2024-02-28T07:34:15;7.10;99.90
22781;DHT22;11557;50.884;4.322;2024-02-28T07:36:41;7.20;99.90
22781;DHT22;11557;50.884;4.322;2024-02-28T07:39:07;7.20;99.90
22781;DHT22;11557;50.884;4.322;2024-02-28T07:41:38;7.30;99.90
22781;DHT22;11557;50.884;4.322;2024-02-28T07:44:04;7.20;99.90
22781;DHT22;11557;50.884;4.322;2024-02-28T07:46:30;7.20;99.90
22781;DHT22;11557;50.884;4.322;2024-02-28T07:48:56;7.10;99.90
22781;DHT22;11557;50.884;4.322;2024-02-28T07:51:21;7.20;99.90
22781;DHT22;11557;50.884;4.322;2024-02-28T07:53:47;7.20;99.90
22781;DHT22;11557;50.884;4.322;2024-02-28T07:56:16;7.30;99.90
22781;DHT22;11557;50.884;4.322;2024-02-28T07:58:43;7.40;99.90
22781;DHT22;11557;50.884;4.322;2024-02-28T08:01:08;7.40;99.90
22781;DHT22;11557;50.884;4.322;2024-02-28T08:03:35;7.30;99.90
22781;DHT22;11557;50.884;4.322;2024-02-28T08:06:00;7.20;99.90
22781;DHT22;11557;50.884;4.322;2024-02-28T08:08:26;7.30;99.90
22781;DHT22;11557;50.884;4.322;2024-02-28T08:10:52;7.30;99.90
22781;DHT22;11557;50.884;4.322;2024-02-28T08:13:18;7.30;99.90
22781;DHT22;11557;50.884;4.322;2024-02-28T08:15:44;7.40;99.90
22781;DHT22;11557;50.884;4.322;2024-02-28T08:18:10;7.40;99.90
22781;DHT22;11557;50.884;4.322;2024-02-28T08:20:38;7.30;99.90
22781;DHT22;11557;50.884;4.322;2024-02-28T08:23:05;7.40;99.90
22781;DHT22;11557;50.884;4.322;2024-02-28T08:25:31;7.50;99.90
22781;DHT22;11557;50.884;4.322;2024-02-28T08:27:56;7.50;99.90
22781;DHT22;11557;50.884;4.322;2024-02-28T08:30:22;7.70;99.90
22781;DHT22;11557;50.884;4.322;2024-02-28T08:32:48;7.70;99.90
22781;DHT22;11557;50.884;4.322;2024-02-28T08:35:13;7.60;99.90
22781;DHT22;11557;50.884;4.322;2024-02-28T08:37:39;7.50;99.90
22781;DHT22;11557;50.884;4.322;2024-02-28T08:40:06;7.60;99.90
22781;DHT22;11557;50.884;4.322;2024-02-28T08:42:32;7.60;99.90
22781;DHT22;11557;50.884;4.322;2024-02-28T08:44:58;7.70;99.90
22781;DHT22;11557;50.884;4.322;2024-02-28T08:47:26;7.70;99.90
22781;DHT22;11557;50.884;4.322;2024-02-28T08:49:52;7.60;99.90
22781;DHT22;11557;50.884;4.322;2024-02-28T08:52:19;7.60;99.90
22781;DHT22;11557;50.884;4.322;2024-02-28T08:54:45;7.60;99.90
22781;DHT22;11557;50.884;4.322;2024-02-28T08:57:10;7.60;99.90
22781;DHT22;11557;50.884;4.322;2024-02-28T08:59:36;7.70;99.90
22781;DHT22;11557;50.884;4.322;2024-02-28T09:02:02;7.70;99.90
22781;DHT22;11557;50.884;4.322;2024-02-28T09:04:29;7.80;99.90
22781;DHT22;11557;50.884;4.322;2024-02-28T09:06:54;7.80;99.90
22781;DHT22;11557;50.884;4.322;2024-02-28T09:09:20;8.00;99.90
22781;DHT22;11557;50.884;4.322;2024-02-28T09:11:45;7.90;99.90
22781;DHT22;11557;50.884;4.322;2024-02-28T09:14:11;7.80;99.90
22781;DHT22;11557;50.884;4.322;2024-02-28T09:16:37;7.70;99.90
22781;DHT22;11557;50.884;4.322;2024-02-28T09:19:03;7.70;99.90
22781;DHT22;11557;50.884;4.322;2024-02-28T09:21:29;7.80;99.90
22781;DHT22;11557;50.884;4.322;2024-02-28T09:23:55;7.80;99.90
22781;DHT22;11557;50.884;4.322;2024-02-28T09:26:21;7.80;99.90
22781;DHT22;11557;50.884;4.322;2024-02-28T09:28:47;7.90;99.90
22781;DHT22;11557;50.884;4.322;2024-02-28T09:31:12;7.90;99.90
22781;DHT22;11557;50.884;4.322;2024-02-28T09:33:41;7.90;99.90
22781;DHT22;11557;50.884;4.322;2024-02-28T09:36:07;8.00;99.90
22781;DHT22;11557;50.884;4.322;2024-02-28T09:38:33;8.00;99.90
22781;DHT22;11557;50.884;4.322;2024-02-28T09:41:01;7.90;99.90
22781;DHT22;11557;50.884;4.322;2024-02-28T09:43:31;8.00;99.90
22781;DHT22;11557;50.884;4.322;2024-02-28T09:46:00;8.00;99.90
22781;DHT22;11557;50.884;4.322;2024-02-28T09:48:29;8.20;99.90
22781;DHT22;11557;50.884;4.322;2024-02-28T09:50:56;8.20;99.90
22781;DHT22;11557;50.884;4.322;2024-02-28T09:53:22;8.40;99.90
22781;DHT22;11557;50.884;4.322;2024-02-28T09:55:51;8.20;99.90
22781;DHT22;11557;50.884;4.322;2024-02-28T09:58:18;8.30;99.90
22781;DHT22;11557;50.884;4.322;2024-02-28T10:00:45;8.30;99.90
22781;DHT22;11557;50.884;4.322;2024-02-28T10:03:21;8.40;99.90
22781;DHT22;11557;50.884;4.322;2024-02-28T10:05:48;7.40;99.90
22781;DHT22;11557;50.884;4.322;2024-02-28T10:08:14;8.50;99.90
22781;DHT22;11557;50.884;4.322;2024-02-28T10:10:47;8.60;99.90
22781;DHT22;11557;50.884;4.322;2024-02-28T10:13:16;8.70;99.90
22781;DHT22;11557;50.884;4.322;2024-02-28T10:15:43;8.90;99.90
22781;DHT22;11557;50.884;4.322;2024-02-28T10:18:08;9.10;99.90
22781;DHT22;11557;50.884;4.322;2024-02-28T10:20:34;9.30;99.90
22781;DHT22;11557;50.884;4.322;2024-02-28T10:23:04;9.30;99.90
22781;DHT22;11557;50.884;4.322;2024-02-28T10:25:31;9.00;99.90
22781;DHT22;11557;50.884;4.322;2024-02-28T10:28:01;9.10;99.90
22781;DHT22;11557;50.884;4.322;2024-02-28T10:30:27;9.10;99.90
22781;DHT22;11557;50.884;4.322;2024-02-28T10:32:53;9.10;99.90
22781;DHT22;11557;50.884;4.322;2024-02-28T10:35:19;10.20;99.90
22781;DHT22;11557;50.884;4.322;2024-02-28T10:37:45;9.20;99.90
22781;DHT22;11557;50.884;4.322;2024-02-28T10:40:13;9.30;99.90
22781;DHT22;11557;50.884;4.322;2024-02-28T10:42:42;9.20;99.90
22781;DHT22;11557;50.884;4.322;2024-02-28T10:45:09;9.10;99.90
22781;DHT22;11557;50.884;4.322;2024-02-28T10:47:38;8.90;99.90
22781;DHT22;11557;50.884;4.322;2024-02-28T10:50:05;9.00;99.90
22781;DHT22;11557;50.884;4.322;2024-02-28T10:52:33;9.00;99.90
22781;DHT22;11557;50.884;4.322;2024-02-28T10:55:02;9.10;99.90
22781;DHT22;11557;50.884;4.322;2024-02-28T10:57:28;8.90;99.90
22781;DHT22;11557;50.884;4.322;2024-02-28T10:59:55;9.20;99.90
22781;DHT22;11557;50.884;4.322;2024-02-28T11:02:22;9.20;99.90
22781;DHT22;11557;50.884;4.322;2024-02-28T11:04:53;9.20;99.90
22781;DHT22;11557;50.884;4.322;2024-02-28T11:07:20;9.30;99.90
22781;DHT22;11557;50.884;4.322;2024-02-28T11:09:46;9.40;99.90
22781;DHT22;11557;50.884;4.322;2024-02-28T11:12:28;9.40;99.90
22781;DHT22;11557;50.884;4.322;2024-02-28T11:15:02;9.60;99.90
22781;DHT22;11557;50.884;4.322;2024-02-28T11:17:30;9.80;99.90
22781;DHT22;11557;50.884;4.322;2024-02-28T11:19:56;10.00;99.90
22781;DHT22;11557;50.884;4.322;2024-02-28T11:22:22;10.10;99.90
22781;DHT22;11557;50.884;4.322;2024-02-28T11:24:47;10.10;99.90
22781;DHT22;11557;50.884;4.322;2024-02-28T11:27:16;10.20;99.90
22781;DHT22;11557;50.884;4.322;2024-02-28T11:29:45;10.10;99.90
22781;DHT22;11557;50.884;4.322;2024-02-28T11:32:13;10.10;99.90
22781;DHT22;11557;50.884;4.322;2024-02-28T11:34:40;10.10;99.90
22781;DHT22;11557;50.884;4.322;2024-02-28T11:37:06;9.70;99.90
22781;DHT22;11557;50.884;4.322;2024-02-28T11:39:34;10.30;99.90
22781;DHT22;11557;50.884;4.322;2024-02-28T11:42:10;10.40;99.90
22781;DHT22;11557;50.884;4.322;2024-02-28T11:44:36;10.30;99.90
22781;DHT22;11557;50.884;4.322;2024-02-28T11:47:02;10.30;99.90
22781;DHT22;11557;50.884;4.322;2024-02-28T11:49:28;10.40;99.90
22781;DHT22;11557;50.884;4.322;2024-02-28T11:51:54;10.50;99.90
22781;DHT22;11557;50.884;4.322;2024-02-28T11:54:19;10.70;99.90
22781;DHT22;11557;50.884;4.322;2024-02-28T11:56:45;11.40;99.90
22781;DHT22;11557;50.884;4.322;2024-02-28T11:59:11;10.90;99.90
22781;DHT22;11557;50.884;4.322;2024-02-28T12:01:40;11.10;99.90
22781;DHT22;11557;50.884;4.322;2024-02-28T12:04:06;11.00;99.90
22781;DHT22;11557;50.884;4.322;2024-02-28T12:06:35;11.10;99.90
22781;DHT22;11557;50.884;4.322;2024-02-28T12:09:08;11.00;99.90
22781;DHT22;11557;50.884;4.322;2024-02-28T12:11:35;11.10;99.90
22781;DHT22;11557;50.884;4.322;2024-02-28T12:14:05;11.10;99.90
22781;DHT22;11557;50.884;4.322;2024-02-28T12:16:40;11.10;99.90
22781;DHT22;11557;50.884;4.322;2024-02-28T12:19:10;11.00;99.90
22781;DHT22;11557;50.884;4.322;2024-02-28T12:21:40;11.10;99.90
22781;DHT22;11557;50.884;4.322;2024-02-28T12:24:09;11.10;99.90
22781;DHT22;11557;50.884;4.322;2024-02-28T12:26:38;11.30;99.90
22781;DHT22;11557;50.884;4.322;2024-02-28T12:29:04;11.30;99.90
22781;DHT22;11557;50.884;4.322;2024-02-28T12:31:30;11.20;99.90
22781;DHT22;11557;50.884;4.322;2024-02-28T12:33:55;11.10;99.90
22781;DHT22;11557;50.884;4.322;2024-02-28T12:36:21;11.20;99.90
22781;DHT22;11557;50.884;4.322;2024-02-28T12:38:47;11.30;99.90
22781;DHT22;11557;50.884;4.322;2024-02-28T12:41:14;11.20;99.90
22781;DHT22;11557;50.884;4.322;2024-02-28T12:43:41;11.30;99.90
22781;DHT22;11557;50.884;4.322;2024-02-28T12:46:06;11.30;99.90
22781;DHT22;11557;50.884;4.322;2024-02-28T12:48:41;11.40;99.90
22781;DHT22;11557;50.884;4.322;2024-02-28T12:51:09;11.40;99.90
22781;DHT22;11557;50.884;4.322;2024-02-28T12:53:35;11.40;99.90
22781;DHT22;11557;50.884;4.322;2024-02-28T12:56:01;11.10;99.90
22781;DHT22;11557;50.884;4.322;2024-02-28T12:58:30;11.20;99.90
22781;DHT22;11557;50.884;4.322;2024-02-28T13:00:56;11.20;99.90
22781;DHT22;11557;50.884;4.322;2024-02-28T13:03:22;11.00;99.90
22781;DHT22;11557;50.884;4.322;2024-02-28T13:05:47;10.90;99.90
22781;DHT22;11557;50.884;4.322;2024-02-28T13:08:13;10.90;99.90
22781;DHT22;11557;50.884;4.322;2024-02-28T13:10:39;10.90;99.90
22781;DHT22;11557;50.884;4.322;2024-02-28T13:13:07;11.00;99.90
22781;DHT22;11557;50.884;4.322;2024-02-28T13:15:33;11.00;99.90
22781;DHT22;11557;50.884;4.322;2024-02-28T13:17:59;11.00;99.90
22781;DHT22;11557;50.884;4.322;2024-02-28T13:20:26;11.00;99.90
22781;DHT22;11557;50.884;4.322;2024-02-28T13:22:52;11.00;99.90
22781;DHT22;11557;50.884;4.322;2024-02-28T13:25:18;11.00;99.90
22781;DHT22;11557;50.884;4.322;2024-02-28T13:27:45;10.90;99.90
22781;DHT22;11557;50.884;4.322;2024-02-28T13:30:12;10.90;99.90
22781;DHT22;11557;50.884;4.322;2024-02-28T13:32:38;10.90;99.90
22781;DHT22;11557;50.884;4.322;2024-02-28T13:35:04;10.90;99.90
22781;DHT22;11557;50.884;4.322;2024-02-28T13:37:29;10.80;99.90
22781;DHT22;11557;50.884;4.322;2024-02-28T13:39:55;10.90;99.90
22781;DHT22;11557;50.884;4.322;2024-02-28T13:42:21;11.00;99.90
22781;DHT22;11557;50.884;4.322;2024-02-28T13:44:49;10.90;99.90
22781;DHT22;11557;50.884;4.322;2024-02-28T13:47:15;11.00;99.90
22781;DHT22;11557;50.884;4.322;2024-02-28T13:49:41;11.00;99.90
22781;DHT22;11557;50.884;4.322;2024-02-28T13:52:07;11.00;99.90
22781;DHT22;11557;50.884;4.322;2024-02-28T13:54:32;11.00;99.90
22781;DHT22;11557;50.884;4.322;2024-02-28T13:56:58;11.10;99.90
22781;DHT22;11557;50.884;4.322;2024-02-28T13:59:24;11.10;99.90
22781;DHT22;11557;50.884;4.322;2024-02-28T14:01:50;11.20;99.90
22781;DHT22;11557;50.884;4.322;2024-02-28T14:04:16;11.30;99.90
22781;DHT22;11557;50.884;4.322;2024-02-28T14:06:41;11.30;99.90
22781;DHT22;11557;50.884;4.322;2024-02-28T14:09:07;11.10;99.90
22781;DHT22;11557;50.884;4.322;2024-02-28T14:11:34;11.10;99.90
22781;DHT22;11557;50.884;4.322;2024-02-28T14:14:00;11.00;99.90
22781;DHT22;11557;50.884;4.322;2024-02-28T14:16:27;11.10;99.90
22781;DHT22;11557;50.884;4.322;2024-02-28T14:18:53;11.20;99.90
22781;DHT22;11557;50.884;4.322;2024-02-28T14:21:19;11.20;99.90
22781;DHT22;11557;50.884;4.322;2024-02-28T14:23:45;11.20;99.90
22781;DHT22;11557;50.884;4.322;2024-02-28T14:26:11;11.30;99.90
22781;DHT22;11557;50.884;4.322;2024-02-28T14:28:37;11.30;99.90
22781;DHT22;11557;50.884;4.322;2024-02-28T14:31:04;11.30;99.90
22781;DHT22;11557;50.884;4.322;2024-02-28T14:33:30;11.20;99.90
22781;DHT22;11557;50.884;4.322;2024-02-28T14:35:58;11.20;99.90
22781;DHT22;11557;50.884;4.322;2024-02-28T14:38:25;11.20;99.90
22781;DHT22;11557;50.884;4.322;2024-02-28T14:40:51;10.80;99.90
22781;DHT22;11557;50.884;4.322;2024-02-28T14:43:17;11.20;99.90
22781;DHT22;11557;50.884;4.322;2024-02-28T14:45:43;11.40;99.90
22781;DHT22;11557;50.884;4.322;2024-02-28T14:48:08;11.10;99.90
22781;DHT22;11557;50.884;4.322;2024-02-28T14:50:34;11.10;99.90
22781;DHT22;11557;50.884;4.322;2024-02-28T14:53:00;11.20;99.90
22781;DHT22;11557;50.884;4.322;2024-02-28T14:55:28;11.20;99.90
22781;DHT22;11557;50.884;4.322;2024-02-28T14:57:54;11.20;99.90
22781;DHT22;11557;50.884;4.322;2024-02-28T15:00:20;11.10;99.90
22781;DHT22;11557;50.884;4.322;2024-02-28T15:02:46;11.10;99.90
22781;DHT22;11557;50.884;4.322;2024-02-28T15:05:12;10.90;99.90
22781;DHT22;11557;50.884;4.322;2024-02-28T15:07:38;11.00;99.90
22781;DHT22;11557;50.884;4.322;2024-02-28T15:10:05;11.10;99.90
22781;DHT22;11557;50.884;4.322;2024-02-28T15:12:32;11.10;99.90
22781;DHT22;11557;50.884;4.322;2024-02-28T15:15:03;11.10;99.90
22781;DHT22;11557;50.884;4.322;2024-02-28T15:17:30;11.10;99.90
22781;DHT22;11557;50.884;4.322;2024-02-28T15:19:56;11.20;99.90
22781;DHT22;11557;50.884;4.322;2024-02-28T15:22:27;11.10;99.90
22781;DHT22;11557;50.884;4.322;2024-02-28T15:24:52;11.10;99.90
22781;DHT22;11557;50.884;4.322;2024-02-28T15:27:18;11.20;99.90
22781;DHT22;11557;50.884;4.322;2024-02-28T15:29:44;11.40;99.90
22781;DHT22;11557;50.884;4.322;2024-02-28T15:32:10;11.20;99.90
22781;DHT22;11557;50.884;4.322;2024-02-28T15:34:35;11.30;99.90
22781;DHT22;11557;50.884;4.322;2024-02-28T15:37:01;11.50;99.90